Time;durP1;ratioP1;P1;durP2;ratioP2;P2;SDS_P1;SDS_P2;PMS_P1;PMS_P2;Temp;Humidity;BMP_temperature;BMP_pressure;BME280_temperature;BME280_humidity;BME280_pressure;Samples;Min_cycle;Max_cycle;Signal;HPM_P1;HPM_P2
2022/06/05 00:01:41;;;;;;;28.42;16.08;;;;;;;18.50;62.16;101499.72;5069685;28;20592;-78
2022/06/05 00:04:28;;;;;;;21.35;11.07;;;;;;;18.50;61.44;101498.88;5069392;28;20028;-85
2022/06/05 00:06:59;;;;;;;20.35;10.88;;;;;;;18.48;61.20;101496.28;5066874;28;20368;-83
2022/06/05 00:09:39;;;;;;;21.67;12.05;;;;;;;18.47;61.59;101494.56;5065555;28;20036;-83
2022/06/05 00:12:10;;;;;;;20.50;9.98;;;;;;;18.45;61.78;101480.25;5056858;28;20135;-83
2022/06/05 00:14:37;;;;;;;22.95;10.63;;;;;;;18.42;61.34;101466.06;5067675;28;20107;-84
2022/06/05 00:17:05;;;;;;;26.42;11.50;;;;;;;18.40;61.52;101476.25;5068496;28;20096;-83
2022/06/05 00:19:31;;;;;;;29.60;14.60;;;;;;;18.40;61.37;101487.16;5066271;28;20044;-83
2022/06/05 00:21:56;;;;;;;20.60;9.07;;;;;;;18.37;61.38;101474.69;5069341;28;20025;-85
2022/06/05 00:24:21;;;;;;;22.25;9.00;;;;;;;18.34;61.18;101473.13;5069807;28;20031;-84
2022/06/05 00:26:57;;;;;;;17.25;7.07;;;;;;;18.31;61.87;101475.28;5069316;28;20710;-84
2022/06/05 00:29:44;;;;;;;20.02;9.18;;;;;;;18.29;61.94;101466.44;5070725;28;20031;-79
2022/06/05 00:32:37;;;;;;;19.35;8.63;;;;;;;18.26;61.70;101466.69;5068698;28;20028;-79
2022/06/05 00:35:03;;;;;;;17.83;7.38;;;;;;;18.24;61.90;101457.84;5061475;28;20033;-79
2022/06/05 00:37:50;;;;;;;20.40;8.10;;;;;;;18.23;61.93;101454.28;5066938;28;20052;-79
2022/06/05 00:40:33;;;;;;;24.58;8.32;;;;;;;18.20;61.52;101448.25;5069900;28;20028;-79
2022/06/05 00:43:04;;;;;;;18.92;8.50;;;;;;;18.18;61.17;101451.13;5063260;28;20031;-78
2022/06/05 00:45:31;;;;;;;18.88;8.55;;;;;;;18.12;61.66;101449.84;5058650;28;20024;-78
2022/06/05 00:47:57;;;;;;;19.40;7.95;;;;;;;18.10;62.01;101451.88;5069939;28;20016;-79
2022/06/05 00:50:27;;;;;;;18.02;8.32;;;;;;;18.07;62.79;101454.88;5070104;28;20377;-79
2022/06/05 00:52:56;;;;;;;19.55;8.32;;;;;;;18.07;61.70;101449.44;5067026;28;20036;-79
2022/06/05 00:55:22;;;;;;;17.33;7.63;;;;;;;18.06;61.61;101449.59;5061086;28;20029;-79
2022/06/05 00:57:48;;;;;;;17.92;7.47;;;;;;;18.02;63.10;101446.28;5071934;28;20024;-79
2022/06/05 01:00:25;;;;;;;19.52;7.95;;;;;;;18.01;61.81;101451.88;5072560;28;20107;-80
2022/06/05 01:02:55;;;;;;;19.40;8.27;;;;;;;17.99;61.14;101449.31;5073631;28;20488;-79
2022/06/05 01:05:22;;;;;;;17.50;7.15;;;;;;;17.97;61.80;101448.59;5073753;28;20024;-79
2022/06/05 01:07:48;;;;;;;18.65;7.32;;;;;;;17.96;62.20;101453.16;5072783;28;20432;-79
2022/06/05 01:10:16;;;;;;;19.33;8.10;;;;;;;17.95;62.50;101451.47;5070594;28;20028;-79
2022/06/05 01:13:05;;;;;;;17.42;7.43;;;;;;;17.98;61.47;101458.50;5070633;28;20020;-79
2022/06/05 01:15:39;;;;;;;19.67;7.75;;;;;;;17.99;61.90;101457.47;5070818;28;20028;-79
2022/06/05 01:18:23;;;;;;;17.58;7.78;;;;;;;17.98;61.58;101472.94;5071684;28;20111;-79
2022/06/05 01:21:26;;;;;;;18.42;7.75;;;;;;;18.01;61.70;101531.63;5069079;28;20064;-78
2022/06/05 01:24:00;;;;;;;18.80;8.00;;;;;;;18.02;62.04;101529.75;5070186;28;20028;-79
2022/06/05 01:26:37;;;;;;;17.95;7.63;;;;;;;17.99;62.15;101480.09;5071523;28;20136;-79
2022/06/05 01:29:07;;;;;;;18.52;8.18;;;;;;;18.02;61.88;101527.03;5067510;28;20044;-78
2022/06/05 01:31:43;;;;;;;18.95;8.30;;;;;;;18.03;62.63;101532.34;5070159;28;20053;-79
2022/06/05 01:34:23;;;;;;;18.58;8.25;;;;;;;18.02;64.02;101484.38;5071181;28;20028;-79
2022/06/05 01:37:15;;;;;;;16.83;7.60;;;;;;;17.98;65.26;101442.19;5070488;28;20036;-79
2022/06/05 01:39:50;;;;;;;18.75;8.18;;;;;;;18.01;65.18;101487.25;5069983;28;20139;-79
2022/06/05 01:42:28;;;;;;;18.70;8.50;;;;;;;18.00;66.12;101505.44;5072245;28;20510;-79
2022/06/05 01:45:06;;;;;;;19.70;9.37;;;;;;;18.00;65.60;101470.06;5071686;28;20024;-79
2022/06/05 01:47:37;;;;;;;20.88;9.05;;;;;;;17.96;66.77;101463.19;5070616;28;20313;-79
2022/06/05 01:50:30;;;;;;;16.75;7.95;;;;;;;17.93;68.03;101458.91;5068690;28;20377;-79
2022/06/05 01:53:18;;;;;;;20.77;8.95;;;;;;;17.93;67.19;101463.50;5068473;28;20560;-79
2022/06/05 01:55:51;;;;;;;19.27;9.20;;;;;;;17.87;68.47;101461.34;5067808;28;20067;-79
2022/06/05 01:58:21;;;;;;;19.52;8.18;;;;;;;17.78;68.04;101444.88;5072756;28;20483;-79
2022/06/05 02:00:53;;;;;;;19.00;8.18;;;;;;;17.74;68.99;101429.00;5072238;28;20141;-79
2022/06/05 02:03:28;;;;;;;19.95;8.35;;;;;;;17.71;69.81;101430.16;5072028;28;20042;-79
2022/06/05 02:06:15;;;;;;;18.80;8.35;;;;;;;17.67;68.90;101426.00;5062969;28;20140;-79
2022/06/05 02:09:01;;;;;;;18.85;8.80;;;;;;;17.62;69.25;101414.72;5072147;28;20028;-79
2022/06/05 02:11:30;;;;;;;19.50;8.25;;;;;;;17.56;71.58;101407.16;5070493;28;20024;-79
2022/06/05 02:14:00;;;;;;;23.05;9.05;;;;;;;17.52;70.83;101394.84;5069705;28;20123;-79
2022/06/05 02:16:28;;;;;;;22.08;9.38;;;;;;;17.47;71.91;101385.25;5070546;28;20464;-79
2022/06/05 02:18:54;;;;;;;19.92;9.68;;;;;;;17.40;73.23;101370.53;5070128;28;20476;-79
2022/06/05 02:21:19;;;;;;;23.67;9.70;;;;;;;17.36;72.23;101371.81;5069438;28;20066;-79
2022/06/05 02:23:45;;;;;;;20.65;9.80;;;;;;;17.31;71.41;101357.81;5071570;28;20502;-79
2022/06/05 02:26:10;;;;;;;22.83;9.50;;;;;;;17.26;69.58;101350.13;5069287;28;20021;-79
2022/06/05 02:28:37;;;;;;;20.00;8.90;;;;;;;17.24;71.97;101349.38;5069667;28;20028;-79
2022/06/05 02:31:05;;;;;;;20.00;9.18;;;;;;;17.22;70.76;101339.66;5071159;28;20020;-79
2022/06/05 02:33:51;;;;;;;19.42;9.00;;;;;;;17.23;71.23;101330.50;5069292;28;20395;-79
2022/06/05 02:36:26;;;;;;;22.08;9.45;;;;;;;17.21;75.23;101332.53;5071784;28;20073;-78
2022/06/05 02:39:00;;;;;;;23.20;9.95;;;;;;;17.15;75.07;101317.66;5052800;28;20036;-78
2022/06/05 02:41:48;;;;;;;21.85;9.50;;;;;;;17.09;73.43;101316.38;5067443;28;20393;-78
2022/06/05 02:44:40;;;;;;;20.73;10.13;;;;;;;17.02;72.89;101298.94;5069854;28;20036;-78
2022/06/05 02:47:31;;;;;;;21.70;9.95;;;;;;;16.96;74.89;101296.81;5070960;28;20164;-77
2022/06/05 02:50:13;;;;;;;20.95;9.75;;;;;;;16.86;74.09;101282.34;5056808;28;20052;-77
2022/06/05 02:52:39;;;;;;;20.60;9.55;;;;;;;16.78;75.33;101269.50;5068448;28;20073;-77
2022/06/05 02:55:17;;;;;;;19.63;9.50;;;;;;;16.70;77.26;101272.91;5067353;28;20036;-77
2022/06/05 02:57:44;;;;;;;20.42;9.40;;;;;;;16.63;75.83;101274.47;5069967;28;20030;-77
2022/06/05 03:00:14;;;;;;;21.65;9.90;;;;;;;16.58;77.03;101280.31;5070774;28;20355;-77
2022/06/05 03:05:24;;;;;;;19.73;9.30;;;;;;;16.54;72.58;101286.19;5068979;28;20040;-77
2022/06/05 03:07:49;;;;;;;21.20;10.07;;;;;;;16.50;76.34;101285.59;5070173;28;20032;-78
2022/06/05 03:10:15;;;;;;;20.67;9.45;;;;;;;16.43;74.55;101274.44;5070118;28;20055;-78
2022/06/05 03:12:41;;;;;;;19.48;9.77;;;;;;;16.36;77.62;101277.88;5068678;28;20032;-78
2022/06/05 03:15:07;;;;;;;19.83;8.43;;;;;;;16.33;75.03;101268.16;5070056;28;20480;-78
2022/06/05 03:17:32;;;;;;;19.95;9.50;;;;;;;16.29;75.47;101274.84;5070836;28;20135;-78
2022/06/05 03:19:58;;;;;;;23.35;9.65;;;;;;;16.27;75.45;101273.25;5062961;28;20496;-78
2022/06/05 03:22:25;;;;;;;19.23;8.60;;;;;;;16.25;75.05;101286.97;5070665;28;20041;-78
2022/06/05 03:24:50;;;;;;;20.92;10.05;;;;;;;16.23;75.41;101294.41;5068924;28;20099;-78
2022/06/05 03:27:16;;;;;;;21.33;10.20;;;;;;;16.21;78.80;101291.81;5070890;28;20046;-78
2022/06/05 03:29:41;;;;;;;21.38;10.35;;;;;;;16.19;76.69;101290.25;5070862;28;20479;-78
2022/06/05 03:32:06;;;;;;;20.65;9.13;;;;;;;16.19;76.35;101301.09;5068569;28;20529;-78
2022/06/05 03:34:32;;;;;;;21.65;9.60;;;;;;;16.10;78.57;101293.78;5069437;28;20059;-78
2022/06/05 03:36:57;;;;;;;23.70;9.98;;;;;;;16.05;77.36;101296.91;5069821;28;20055;-77
2022/06/05 03:39:22;;;;;;;19.50;9.32;;;;;;;16.02;79.05;101295.34;5068950;28;20032;-77
2022/06/05 03:41:48;;;;;;;24.95;9.55;;;;;;;15.99;79.00;101301.03;5071368;28;20111;-78
2022/06/05 03:44:13;;;;;;;21.02;9.77;;;;;;;15.96;75.99;101298.59;5067608;28;20036;-78
2022/06/05 03:46:39;;;;;;;20.45;9.48;;;;;;;15.95;76.15;101291.44;5069132;28;20169;-77
2022/06/05 03:49:06;;;;;;;20.23;8.80;;;;;;;15.93;76.06;101289.88;5070529;28;20024;-78
2022/06/05 03:51:31;;;;;;;21.05;9.68;;;;;;;15.89;76.37;101289.28;5068732;28;20066;-78
2022/06/05 03:53:56;;;;;;;21.02;9.35;;;;;;;15.90;76.07;101288.28;5052115;28;20492;-78
2022/06/05 03:56:24;;;;;;;21.70;8.82;;;;;;;15.90;77.15;101293.69;5069494;28;20017;-78
2022/06/05 03:58:50;;;;;;;23.30;9.38;;;;;;;15.88;78.02;101295.69;5057350;28;20349;-77
2022/06/05 04:01:18;;;;;;;19.73;8.45;;;;;;;15.88;77.13;101293.00;5068895;28;20472;-77
2022/06/05 04:03:45;;;;;;;19.55;8.63;;;;;;;15.87;76.08;101299.41;5067782;28;20036;-77
2022/06/05 04:06:13;;;;;;;21.48;9.43;;;;;;;15.87;75.18;101302.09;5068558;28;20391;-77
2022/06/05 04:08:40;;;;;;;21.83;9.40;;;;;;;15.86;76.55;101295.00;5069540;28;20044;-77
2022/06/05 04:11:11;;;;;;;20.90;8.95;;;;;;;15.80;78.21;101292.81;5068092;28;20800;-77
2022/06/05 04:13:37;;;;;;;20.45;9.98;;;;;;;15.78;78.57;101283.94;5067772;28;20029;-78
2022/06/05 04:16:12;;;;;;;21.85;9.75;;;;;;;15.76;78.45;101277.78;5070488;28;20429;-78
2022/06/05 04:18:39;;;;;;;20.38;9.52;;;;;;;15.77;79.06;101271.38;5068166;28;20097;-78
2022/06/05 04:21:08;;;;;;;20.58;8.95;;;;;;;15.72;79.01;101272.66;5067805;28;20020;-78
2022/06/05 04:23:34;;;;;;;21.20;8.80;;;;;;;15.72;77.49;101271.78;5062883;28;20488;-78
2022/06/05 04:26:00;;;;;;;21.98;9.32;;;;;;;15.72;76.03;101272.66;5072166;28;20039;-78
2022/06/05 04:28:25;;;;;;;21.40;8.90;;;;;;;15.72;75.96;101264.53;5067696;28;20112;-78
2022/06/05 04:30:50;;;;;;;21.83;9.05;;;;;;;15.72;79.33;101269.06;5072096;28;20021;-78
2022/06/05 04:33:16;;;;;;;21.75;8.63;;;;;;;15.75;78.44;101268.78;5071203;28;20043;-78
2022/06/05 04:35:41;;;;;;;24.10;10.10;;;;;;;15.75;77.23;101268.78;5074163;28;20052;-78
2022/06/05 04:38:06;;;;;;;21.00;8.98;;;;;;;15.75;74.66;101267.94;5063587;28;20025;-78
2022/06/05 04:40:32;;;;;;;20.10;9.00;;;;;;;15.73;76.36;101268.94;5070749;28;20503;-78
2022/06/05 04:42:57;;;;;;;21.73;9.18;;;;;;;15.72;79.01;101264.53;5067312;28;20037;-78
2022/06/05 04:45:22;;;;;;;21.70;9.45;;;;;;;15.75;77.60;101262.53;5074165;28;20032;-78
2022/06/05 04:47:47;;;;;;;22.88;9.75;;;;;;;15.75;76.36;101265.22;5070893;28;20028;-78
2022/06/05 04:50:13;;;;;;;19.88;8.77;;;;;;;15.75;77.25;101255.25;5070944;28;20032;-78
2022/06/05 04:52:38;;;;;;;19.80;8.57;;;;;;;15.76;76.08;101261.53;5071619;28;20020;-78
2022/06/05 04:55:04;;;;;;;22.13;9.85;;;;;;;15.75;78.25;101257.94;5068378;28;20028;-78
2022/06/05 04:57:30;;;;;;;21.35;8.75;;;;;;;15.73;77.25;101268.94;5072237;28;20032;-78
2022/06/05 04:59:55;;;;;;;20.25;8.82;;;;;;;15.72;77.04;101263.66;5073062;28;20415;-78
2022/06/05 05:02:21;;;;;;;21.77;9.20;;;;;;;15.75;75.11;101262.53;5071344;28;20074;-78
2022/06/05 05:04:47;;;;;;;20.17;8.90;;;;;;;15.79;77.06;101261.28;5071939;28;20020;-78
2022/06/05 05:07:14;;;;;;;21.45;9.27;;;;;;;15.76;76.82;101267.81;5069953;28;20029;-78
2022/06/05 05:09:39;;;;;;;20.98;8.98;;;;;;;15.78;75.93;101270.38;5068004;28;20032;-78
2022/06/05 05:12:05;;;;;;;24.10;10.38;;;;;;;15.81;72.16;101280.97;5071462;28;20028;-78
2022/06/05 05:14:31;;;;;;;19.40;8.65;;;;;;;15.81;74.10;101272.84;5072424;28;20108;-78
2022/06/05 05:16:56;;;;;;;21.58;9.60;;;;;;;15.84;76.06;101275.28;5070883;28;20044;-78
2022/06/05 05:19:21;;;;;;;22.77;9.57;;;;;;;15.84;77.45;101265.31;5071679;28;20115;-79
2022/06/05 05:21:46;;;;;;;22.17;9.43;;;;;;;15.85;76.65;101282.44;5071520;28;20050;-79
2022/06/05 05:24:12;;;;;;;22.45;9.18;;;;;;;15.87;75.98;101272.28;5072622;28;20020;-78
2022/06/05 05:26:37;;;;;;;21.38;9.27;;;;;;;15.87;76.55;101278.59;5071387;28;20032;-78
2022/06/05 05:29:04;;;;;;;19.27;8.90;;;;;;;15.88;72.79;101280.28;5072488;28;20032;-78
2022/06/05 05:31:35;;;;;;;19.33;8.57;;;;;;;15.90;73.39;101278.31;5070583;28;20029;-78
2022/06/05 05:34:00;;;;;;;21.00;10.10;;;;;;;15.95;72.84;101275.19;5069735;28;20480;-78
2022/06/05 05:36:28;;;;;;;20.38;10.02;;;;;;;15.99;75.22;101271.22;5070141;28;20023;-78
2022/06/05 05:44:23;;;;;;;19.55;9.07;;;;;;;16.09;72.64;101282.06;5072991;28;20603;-78
2022/06/05 05:46:48;;;;;;;21.60;9.52;;;;;;;16.09;72.02;101276.63;5071578;28;20107;-78
2022/06/05 05:49:15;;;;;;;23.25;8.77;;;;;;;16.15;72.81;101275.25;5064460;28;20052;-78
2022/06/05 05:51:41;;;;;;;21.25;9.32;;;;;;;16.17;73.06;101273.25;5073433;28;20020;-78
2022/06/05 05:54:07;;;;;;;20.88;8.88;;;;;;;16.17;72.91;101271.41;5072321;28;20118;-78
2022/06/05 05:56:33;;;;;;;22.13;9.18;;;;;;;16.18;71.70;101264.97;5071276;28;20092;-78
2022/06/05 05:58:59;;;;;;;22.83;9.00;;;;;;;16.19;71.44;101254.97;5072309;28;20043;-78
2022/06/05 06:01:24;;;;;;;19.50;8.30;;;;;;;16.23;72.29;101251.84;5070299;28;20055;-78
2022/06/05 06:03:49;;;;;;;19.85;9.02;;;;;;;16.24;71.95;101244.59;5071608;28;20387;-78
2022/06/05 06:06:15;;;;;;;19.55;8.57;;;;;;;16.28;72.49;101246.00;5070490;28;20020;-78
2022/06/05 06:08:41;;;;;;;22.50;8.85;;;;;;;16.30;72.61;101238.59;5071496;28;20068;-78
2022/06/05 06:11:07;;;;;;;21.02;9.40;;;;;;;16.33;73.67;101234.75;5072809;28;20032;-78
2022/06/05 06:13:32;;;;;;;25.23;10.07;;;;;;;16.36;72.42;101227.19;5072191;28;20058;-78
2022/06/05 06:15:58;;;;;;;20.67;8.93;;;;;;;16.39;72.70;101234.19;5071177;28;20406;-78
2022/06/05 06:18:23;;;;;;;21.08;9.40;;;;;;;16.41;74.50;101210.47;5072399;28;20044;-79
2022/06/05 06:20:49;;;;;;;21.13;9.20;;;;;;;16.45;72.47;101221.91;5072615;28;20491;-79
2022/06/05 06:23:15;;;;;;;24.40;9.98;;;;;;;16.48;71.90;101210.78;5071329;28;20024;-79
2022/06/05 06:25:41;;;;;;;20.67;9.07;;;;;;;16.53;71.56;101217.50;5067311;28;20078;-79
2022/06/05 06:28:06;;;;;;;20.98;10.30;;;;;;;16.57;72.32;101210.78;5071361;28;20017;-78
2022/06/05 06:30:33;;;;;;;20.95;9.68;;;;;;;16.60;72.63;101196.06;5070046;28;21297;-78
2022/06/05 06:32:58;;;;;;;21.45;9.25;;;;;;;16.65;72.38;101193.78;5070146;28;20360;-78
2022/06/05 06:35:23;;;;;;;24.38;10.25;;;;;;;16.70;71.20;101194.19;5068410;28;20032;-78
2022/06/05 06:37:48;;;;;;;18.85;9.15;;;;;;;16.76;72.11;101190.91;5070744;28;20078;-78
2022/06/05 06:40:14;;;;;;;22.63;10.32;;;;;;;16.81;71.08;101184.19;5069951;28;20060;-78
2022/06/05 06:42:39;;;;;;;19.83;9.57;;;;;;;16.86;70.90;101171.88;5071423;28;20116;-78
2022/06/05 06:45:05;;;;;;;19.90;9.73;;;;;;;16.91;71.01;101176.91;5070063;28;20490;-78
2022/06/05 06:47:30;;;;;;;20.13;10.50;;;;;;;16.94;70.69;101172.06;5068025;28;20024;-78
2022/06/05 06:49:56;;;;;;;20.13;9.63;;;;;;;17.00;71.67;101162.47;5068105;28;20041;-78
2022/06/05 06:52:21;;;;;;;22.67;10.55;;;;;;;17.03;69.77;101155.88;5072030;28;20443;-78
2022/06/05 06:54:48;;;;;;;20.17;10.18;;;;;;;17.07;70.68;101155.44;5065350;28;20067;-78
2022/06/05 06:57:14;;;;;;;20.67;9.82;;;;;;;17.14;70.25;101179.28;5059428;28;20027;-78
2022/06/05 06:59:39;;;;;;;22.13;10.82;;;;;;;17.18;69.96;101183.44;5069365;28;20024;-78
2022/06/05 07:02:04;;;;;;;20.77;9.70;;;;;;;17.21;70.63;101181.25;5067745;28;20480;-78
2022/06/05 07:04:30;;;;;;;20.08;10.10;;;;;;;17.24;69.97;101163.81;5070494;28;20025;-78
2022/06/05 07:06:55;;;;;;;20.55;9.10;;;;;;;17.28;69.83;101170.69;5069725;28;20053;-78
2022/06/05 07:09:21;;;;;;;21.65;10.23;;;;;;;17.36;70.85;101167.22;5066434;28;20039;-78
2022/06/05 07:11:47;;;;;;;22.05;10.05;;;;;;;17.41;69.72;101167.59;5069355;28;20024;-78
2022/06/05 07:14:12;;;;;;;20.90;10.85;;;;;;;17.49;69.65;101153.28;5070081;28;20140;-78
2022/06/05 07:16:38;;;;;;;22.63;9.88;;;;;;;17.53;69.14;101151.97;5069328;28;20028;-78
2022/06/05 07:19:04;;;;;;;21.50;10.15;;;;;;;17.59;69.52;101151.38;5067839;28;20036;-78
2022/06/05 07:21:29;;;;;;;20.38;10.32;;;;;;;17.67;69.76;101158.75;5065302;28;20177;-78
2022/06/05 07:23:56;;;;;;;20.85;10.00;;;;;;;17.73;69.35;101156.31;5069590;28;20036;-78
2022/06/05 07:26:24;;;;;;;21.58;11.18;;;;;;;17.76;68.53;101150.56;5068580;28;20024;-78
2022/06/05 07:28:49;;;;;;;20.67;10.90;;;;;;;17.85;69.27;101151.50;5068860;28;20028;-78
2022/06/05 07:31:15;;;;;;;21.27;10.35;;;;;;;17.92;69.83;101146.31;5069178;28;20031;-78
2022/06/05 07:33:41;;;;;;;20.10;10.75;;;;;;;17.99;68.95;101144.72;5069465;28;20032;-78
2022/06/05 07:36:10;;;;;;;22.98;10.68;;;;;;;18.02;68.39;101138.97;5059793;28;20028;-78
2022/06/05 07:38:36;;;;;;;22.50;10.88;;;;;;;18.08;68.61;101137.50;5069378;28;20024;-78
2022/06/05 07:41:04;;;;;;;21.95;10.30;;;;;;;18.13;68.87;101138.75;5068786;28;20052;-78
2022/06/05 07:43:29;;;;;;;21.67;10.80;;;;;;;18.17;67.88;101126.53;5069074;28;20032;-78
2022/06/05 07:45:56;;;;;;;20.83;10.70;;;;;;;18.24;69.38;101124.03;5070056;28;20089;-79
2022/06/05 07:48:22;;;;;;;21.60;10.43;;;;;;;18.27;67.99;101122.88;5070758;28;20025;-78
2022/06/05 07:56:16;;;;;;;22.27;11.25;;;;;;;18.40;68.33;101117.03;5068896;28;20046;-79
2022/06/05 07:58:42;;;;;;;22.27;10.82;;;;;;;18.44;68.72;101116.56;5068959;28;20032;-79
2022/06/05 08:01:07;;;;;;;20.20;9.57;;;;;;;18.48;68.12;101114.41;5069278;28;20028;-79
2022/06/05 08:03:33;;;;;;;20.77;11.13;;;;;;;18.54;68.10;101108.31;5069241;28;20028;-79
2022/06/05 08:05:59;;;;;;;22.33;11.55;;;;;;;18.60;67.88;101102.22;5064820;28;20493;-79
2022/06/05 08:08:24;;;;;;;21.83;12.10;;;;;;;18.64;68.47;101098.19;5068607;28;20138;-79
2022/06/05 08:10:50;;;;;;;22.38;11.40;;;;;;;18.68;67.35;101104.16;5069533;28;20054;-79
2022/06/05 08:13:15;;;;;;;21.80;11.00;;;;;;;18.70;68.14;101099.41;5069358;28;20020;-79
2022/06/05 08:15:44;;;;;;;21.70;11.05;;;;;;;18.79;69.17;101097.59;5069159;28;20581;-79
2022/06/05 08:18:10;;;;;;;;;;;;;;;18.82;68.39;101092.69;5071029;28;20119;-79
2022/06/05 08:20:36;;;;;;;19.98;10.13;;;;;;;18.91;69.10;101093.59;5067082;28;19995;-79
2022/06/05 08:23:04;;;;;;;20.98;10.70;;;;;;;18.98;68.82;101089.22;5068355;28;20027;-79
2022/06/05 08:25:29;;;;;;;21.42;11.32;;;;;;;19.11;68.00;101088.78;5069427;28;20042;-79
2022/06/05 08:27:54;;;;;;;22.42;12.00;;;;;;;19.23;67.12;101088.50;5069451;28;20543;-80
2022/06/05 08:30:20;;;;;;;21.40;11.35;;;;;;;19.30;66.99;101081.38;5068056;28;20055;-79
2022/06/05 08:32:45;;;;;;;29.48;12.10;;;;;;;19.38;69.11;101086.84;5067232;28;20054;-79
2022/06/05 08:35:10;;;;;;;23.50;13.20;;;;;;;19.42;66.88;101088.22;5067475;28;20032;-79
2022/06/05 08:43:36;;;;;;;22.23;11.85;;;;;;;19.60;66.59;101092.72;5069511;28;20185;-79
2022/06/05 08:46:02;;;;;;;25.45;13.02;;;;;;;19.67;66.59;101089.16;5067437;28;20020;-80
2022/06/05 08:48:36;;;;;;;22.33;12.40;;;;;;;19.73;66.15;101095.81;5062131;28;20043;-79
2022/06/05 08:51:22;;;;;;;22.10;12.40;;;;;;;19.79;66.75;101089.72;5057609;28;20036;-79
2022/06/05 08:53:56;;;;;;;20.67;11.77;;;;;;;19.84;66.58;101087.38;5068844;28;20201;-79
2022/06/05 08:56:32;;;;;;;21.80;11.70;;;;;;;19.89;67.22;101104.06;5061007;28;20028;-79
2022/06/05 08:59:05;;;;;;;23.35;13.80;;;;;;;19.90;65.57;101094.88;5068133;28;20111;-79
2022/06/05 09:01:52;;;;;;;22.75;12.30;;;;;;;19.95;67.03;101096.25;5066941;28;20052;-79
2022/06/05 09:04:38;;;;;;;21.92;13.30;;;;;;;19.94;65.24;101100.00;5067007;28;20503;-79
2022/06/05 09:07:09;;;;;;;21.77;12.10;;;;;;;19.98;66.23;101106.81;5063792;28;20036;-79
2022/06/05 09:09:50;;;;;;;23.52;13.73;;;;;;;19.95;65.81;101107.16;5065739;28;20028;-79
2022/06/05 09:12:25;;;;;;;24.05;14.27;;;;;;;19.90;65.06;101099.47;5069218;28;20024;-79
2022/06/05 09:15:01;;;;;;;22.90;13.95;;;;;;;19.86;65.50;101098.94;5071780;28;20021;-79
2022/06/05 09:17:27;;;;;;;22.10;13.80;;;;;;;19.86;66.47;101098.94;5067011;28;20122;-79
2022/06/05 09:19:55;;;;;;;23.27;13.57;;;;;;;19.86;65.74;101096.22;5068573;28;20115;-79
2022/06/05 09:22:50;;;;;;;22.83;13.57;;;;;;;19.89;66.95;101095.88;5072890;28;20438;-79
2022/06/05 09:25:51;;;;;;;23.15;12.90;;;;;;;19.89;66.99;101104.06;5068030;28;20031;-79
2022/06/05 09:28:44;;;;;;;22.15;12.70;;;;;;;19.90;66.49;101091.31;5059755;28;20391;-79
2022/06/05 09:31:09;;;;;;;22.52;13.50;;;;;;;19.88;66.14;101085.13;5060616;28;20090;-79
2022/06/05 09:33:39;;;;;;;23.08;13.20;;;;;;;19.88;67.19;101091.47;5068551;28;20024;-79
2022/06/05 09:36:08;;;;;;;24.50;14.02;;;;;;;19.88;66.45;101086.00;5071944;28;20031;-79
2022/06/05 09:38:45;;;;;;;22.95;13.77;;;;;;;19.84;65.90;101087.38;5068983;28;20028;-79
2022/06/05 09:41:19;;;;;;;25.90;12.60;;;;;;;19.83;67.02;101074.75;5066332;28;20036;-78
2022/06/05 09:44:11;;;;;;;21.92;13.13;;;;;;;19.81;66.96;101076.78;5070779;28;20452;-79
2022/06/05 09:46:48;;;;;;;23.25;13.77;;;;;;;19.81;67.38;101074.06;5071692;28;20043;-79
2022/06/05 09:49:34;;;;;;;21.30;13.40;;;;;;;19.81;67.29;101070.47;5066225;28;20020;-79
2022/06/05 09:52:11;;;;;;;22.88;12.55;;;;;;;19.82;68.15;101062.13;5069046;28;20441;-79
2022/06/05 09:54:47;;;;;;;26.55;13.70;;;;;;;19.79;67.43;101058.88;5066790;28;20388;-81
2022/06/05 10:00:09;;;;;;;23.48;14.63;;;;;;;19.79;67.68;101046.09;5073268;28;20051;-81
2022/06/05 10:02:37;;;;;;;21.85;13.15;;;;;;;19.79;68.20;101031.63;5070393;28;20032;-81
2022/06/05 10:05:23;;;;;;;26.35;14.30;;;;;;;19.79;68.43;101027.00;5073224;28;20032;-81
2022/06/05 10:07:55;;;;;;;22.27;12.85;;;;;;;19.79;70.59;101031.63;5068045;28;20476;-81
2022/06/05 10:10:35;;;;;;;22.42;13.15;;;;;;;19.79;70.17;101032.44;5053828;28;20399;-81
2022/06/05 10:13:09;;;;;;;;;;;;;;;19.81;69.20;101030.44;5052053;28;20037;-80
2022/06/05 10:15:44;;;;;;;23.30;14.57;;;;;;;19.77;70.60;101029.03;5052343;28;20264;-80
2022/06/05 10:18:30;;;;;;;22.30;13.63;;;;;;;19.78;72.49;101030.78;5061407;28;20501;-80
2022/06/05 10:21:01;;;;;;;23.58;15.27;;;;;;;19.77;72.65;101030.91;5053226;28;20031;-80
2022/06/05 10:23:27;;;;;;;22.95;15.32;;;;;;;19.74;71.99;101026.63;5070211;28;20038;-80
2022/06/05 10:26:17;;;;;;;23.17;14.55;;;;;;;19.73;74.06;101028.50;5067243;28;20029;-80
2022/06/05 10:28:44;;;;;;;24.20;15.00;;;;;;;19.72;74.52;101036.84;5069399;28;20017;-80
2022/06/05 10:31:22;;;;;;;22.75;14.63;;;;;;;19.70;74.81;101022.53;5070493;28;20032;-80
2022/06/05 10:34:12;;;;;;;23.55;15.52;;;;;;;19.68;73.76;101032.78;5071372;28;20097;-80
2022/06/05 10:36:53;;;;;;;27.88;15.90;;;;;;;19.65;76.23;101027.63;5069355;28;20025;-81
2022/06/05 10:39:32;;;;;;;23.90;14.55;;;;;;;19.62;77.68;101025.22;5074498;28;20033;-81
2022/06/05 10:41:57;;;;;;;22.42;14.57;;;;;;;19.55;80.26;101028.63;5071574;28;20476;-81
2022/06/05 10:44:29;;;;;;;24.27;16.05;;;;;;;19.50;76.99;101022.84;5070758;28;20078;-81
2022/06/05 10:47:10;;;;;;;24.50;14.98;;;;;;;19.47;78.37;101023.16;5070274;28;20036;-81
2022/06/05 10:50:02;;;;;;;25.63;15.60;;;;;;;19.43;79.61;101027.25;5072543;28;20102;-81
2022/06/05 10:52:39;;;;;;;23.42;13.85;;;;;;;19.35;80.74;101024.50;5072499;28;20025;-81
2022/06/05 10:55:34;;;;;;;22.95;15.13;;;;;;;19.29;81.32;101030.63;5069819;28;20024;-81
2022/06/05 10:58:13;;;;;;;25.17;16.83;;;;;;;19.17;83.88;101028.19;5058967;28;20123;-81
2022/06/05 11:00:56;;;;;;;24.90;17.48;;;;;;;19.05;83.83;101018.63;5064574;28;20025;-81
2022/06/05 11:03:37;;;;;;;24.73;16.20;;;;;;;18.93;83.34;101011.75;5073700;28;20025;-81
2022/06/05 11:06:28;;;;;;;25.95;16.92;;;;;;;18.86;83.64;101020.56;5073080;28;20029;-81
2022/06/05 11:09:18;;;;;;;24.63;16.90;;;;;;;18.79;85.79;101027.66;5070399;28;20047;-81
2022/06/05 11:15:12;;;;;;;28.77;20.27;;;;;;;18.76;88.56;101024.41;5065978;28;20146;-81
2022/06/05 11:17:56;;;;;;;26.55;18.77;;;;;;;18.70;89.88;101025.91;5054652;28;20405;-81
2022/06/05 11:20:26;;;;;;;28.27;20.50;;;;;;;18.70;92.24;101023.19;5071340;28;20021;-81
2022/06/05 11:22:54;;;;;;;28.27;19.88;;;;;;;18.63;92.09;101016.69;5070070;28;20633;-81
2022/06/05 11:25:29;;;;;;;27.58;19.83;;;;;;;18.60;92.98;101019.72;5067422;28;20021;-81
2022/06/05 11:28:12;;;;;;;28.33;20.13;;;;;;;18.50;93.41;101012.50;5068863;28;20033;-81
2022/06/05 11:31:13;;;;;;;27.13;20.08;;;;;;;18.49;94.09;101005.38;5070091;28;20110;-81
2022/06/05 11:33:50;;;;;;;29.65;21.02;;;;;;;18.47;94.68;100996.50;5069014;28;20499;-81
2022/06/05 11:36:40;;;;;;;26.90;19.55;;;;;;;18.41;93.02;101007.19;5071407;28;20483;-81
2022/06/05 11:39:26;;;;;;;29.15;19.40;;;;;;;18.40;95.38;101008.19;5071019;28;20060;-81
2022/06/05 11:42:09;;;;;;;31.17;22.55;;;;;;;18.36;95.74;100996.78;5062983;28;20155;-81
2022/06/05 11:44:42;;;;;;;30.38;21.13;;;;;;;18.38;97.07;100983.88;5068376;28;20035;-81
2022/06/05 11:47:24;;;;;;;31.52;23.02;;;;;;;18.32;96.31;100979.91;5063473;28;20393;-80
2022/06/05 11:50:02;;;;;;;29.38;21.55;;;;;;;18.35;98.86;100984.19;5071125;28;20028;-80
2022/06/05 11:52:36;;;;;;;34.90;22.45;;;;;;;18.30;98.28;100983.78;5070177;28;20038;-80
2022/06/05 11:55:14;;;;;;;30.27;23.00;;;;;;;18.30;99.03;100984.66;5069805;28;20093;-80
2022/06/05 11:57:48;;;;;;;30.33;23.33;;;;;;;18.25;98.70;100988.88;5070595;28;20495;-80
2022/06/05 12:00:32;;;;;;;30.08;22.13;;;;;;;18.24;98.86;100988.00;5063618;28;20581;-80